sensor_id;sensor_type;location;lat;lon;timestamp;P1;durP1;ratioP1;P2;durP2;ratioP2
46653;SDS011;38960;51.074;17.004;2022-07-23T00:02:22;15.00;;;13.43;;
46653;SDS011;38960;51.074;17.004;2022-07-23T00:04:47;14.48;;;13.00;;
46653;SDS011;38960;51.074;17.004;2022-07-23T00:07:13;15.35;;;13.88;;
46653;SDS011;38960;51.074;17.004;2022-07-23T00:09:39;14.93;;;13.73;;
46653;SDS011;38960;51.074;17.004;2022-07-23T00:12:04;14.88;;;13.40;;
46653;SDS011;38960;51.074;17.004;2022-07-23T00:14:30;15.15;;;13.73;;
46653;SDS011;38960;51.074;17.004;2022-07-23T00:16:56;15.40;;;14.02;;
46653;SDS011;38960;51.074;17.004;2022-07-23T00:19:21;14.57;;;13.50;;
46653;SDS011;38960;51.074;17.004;2022-07-23T00:21:47;14.80;;;13.48;;
46653;SDS011;38960;51.074;17.004;2022-07-23T00:24:12;15.15;;;13.73;;
46653;SDS011;38960;51.074;17.004;2022-07-23T00:26:37;15.00;;;13.63;;
46653;SDS011;38960;51.074;17.004;2022-07-23T00:29:03;16.02;;;14.48;;
46653;SDS011;38960;51.074;17.004;2022-07-23T00:31:28;15.55;;;14.10;;
46653;SDS011;38960;51.074;17.004;2022-07-23T00:33:54;14.13;;;12.93;;
46653;SDS011;38960;51.074;17.004;2022-07-23T00:36:23;14.77;;;13.45;;
46653;SDS011;38960;51.074;17.004;2022-07-23T00:38:49;14.55;;;13.10;;
46653;SDS011;38960;51.074;17.004;2022-07-23T00:41:15;16.25;;;14.70;;
46653;SDS011;38960;51.074;17.004;2022-07-23T00:43:40;14.73;;;13.35;;
46653;SDS011;38960;51.074;17.004;2022-07-23T00:46:06;13.75;;;12.45;;
46653;SDS011;38960;51.074;17.004;2022-07-23T00:48:31;15.00;;;13.50;;
46653;SDS011;38960;51.074;17.004;2022-07-23T00:50:57;13.90;;;12.77;;
46653;SDS011;38960;51.074;17.004;2022-07-23T00:53:23;13.93;;;12.75;;
46653;SDS011;38960;51.074;17.004;2022-07-23T00:55:49;13.75;;;12.43;;
46653;SDS011;38960;51.074;17.004;2022-07-23T00:58:15;14.25;;;12.88;;
46653;SDS011;38960;51.074;17.004;2022-07-23T01:00:41;19.75;;;13.98;;
46653;SDS011;38960;51.074;17.004;2022-07-23T01:03:07;14.90;;;13.43;;
46653;SDS011;38960;51.074;17.004;2022-07-23T01:05:32;14.27;;;12.95;;
46653;SDS011;38960;51.074;17.004;2022-07-23T01:07:58;14.35;;;13.00;;
46653;SDS011;38960;51.074;17.004;2022-07-23T01:10:24;14.45;;;13.05;;
46653;SDS011;38960;51.074;17.004;2022-07-23T01:12:56;14.65;;;13.40;;
46653;SDS011;38960;51.074;17.004;2022-07-23T01:15:27;15.13;;;13.77;;
46653;SDS011;38960;51.074;17.004;2022-07-23T01:17:53;13.55;;;12.55;;
46653;SDS011;38960;51.074;17.004;2022-07-23T01:20:19;14.55;;;13.45;;
46653;SDS011;38960;51.074;17.004;2022-07-23T01:22:45;14.82;;;13.65;;
46653;SDS011;38960;51.074;17.004;2022-07-23T01:25:11;14.52;;;13.30;;
46653;SDS011;38960;51.074;17.004;2022-07-23T01:27:39;14.80;;;13.32;;
46653;SDS011;38960;51.074;17.004;2022-07-23T01:30:06;14.75;;;13.55;;
46653;SDS011;38960;51.074;17.004;2022-07-23T01:32:32;14.10;;;12.90;;
46653;SDS011;38960;51.074;17.004;2022-07-23T01:34:57;14.52;;;13.32;;
46653;SDS011;38960;51.074;17.004;2022-07-23T01:37:23;14.57;;;13.30;;
46653;SDS011;38960;51.074;17.004;2022-07-23T01:39:48;14.32;;;12.95;;
46653;SDS011;38960;51.074;17.004;2022-07-23T01:42:14;14.80;;;13.50;;
46653;SDS011;38960;51.074;17.004;2022-07-23T01:44:40;14.70;;;13.38;;
46653;SDS011;38960;51.074;17.004;2022-07-23T01:47:09;15.68;;;14.07;;
46653;SDS011;38960;51.074;17.004;2022-07-23T01:49:34;15.63;;;14.23;;
46653;SDS011;38960;51.074;17.004;2022-07-23T01:52:18;15.27;;;13.82;;
46653;SDS011;38960;51.074;17.004;2022-07-23T01:54:48;16.48;;;13.85;;
46653;SDS011;38960;51.074;17.004;2022-07-23T01:57:13;15.25;;;13.82;;
46653;SDS011;38960;51.074;17.004;2022-07-23T01:59:39;15.57;;;14.10;;
46653;SDS011;38960;51.074;17.004;2022-07-23T02:02:05;16.77;;;13.65;;
46653;SDS011;38960;51.074;17.004;2022-07-23T02:04:31;15.65;;;14.00;;
46653;SDS011;38960;51.074;17.004;2022-07-23T02:07:00;15.27;;;13.80;;
46653;SDS011;38960;51.074;17.004;2022-07-23T02:09:26;16.25;;;13.80;;
46653;SDS011;38960;51.074;17.004;2022-07-23T02:11:51;15.02;;;13.63;;
46653;SDS011;38960;51.074;17.004;2022-07-23T02:16:48;14.98;;;13.70;;
46653;SDS011;38960;51.074;17.004;2022-07-23T02:19:13;14.90;;;13.77;;
46653;SDS011;38960;51.074;17.004;2022-07-23T02:21:39;15.00;;;13.75;;
46653;SDS011;38960;51.074;17.004;2022-07-23T02:24:05;15.00;;;13.70;;
46653;SDS011;38960;51.074;17.004;2022-07-23T02:26:31;15.95;;;14.50;;
46653;SDS011;38960;51.074;17.004;2022-07-23T02:29:02;15.18;;;13.85;;
46653;SDS011;38960;51.074;17.004;2022-07-23T02:31:29;15.68;;;14.38;;
46653;SDS011;38960;51.074;17.004;2022-07-23T02:33:55;15.82;;;14.52;;
46653;SDS011;38960;51.074;17.004;2022-07-23T02:36:21;15.77;;;14.35;;
46653;SDS011;38960;51.074;17.004;2022-07-23T02:38:47;15.20;;;13.90;;
46653;SDS011;38960;51.074;17.004;2022-07-23T02:41:13;15.68;;;14.23;;
46653;SDS011;38960;51.074;17.004;2022-07-23T02:43:40;14.48;;;13.38;;
46653;SDS011;38960;51.074;17.004;2022-07-23T02:46:06;16.33;;;13.40;;
46653;SDS011;38960;51.074;17.004;2022-07-23T02:48:32;14.30;;;13.00;;
46653;SDS011;38960;51.074;17.004;2022-07-23T02:50:58;15.27;;;13.70;;
46653;SDS011;38960;51.074;17.004;2022-07-23T02:53:29;14.73;;;13.30;;
46653;SDS011;38960;51.074;17.004;2022-07-23T02:55:55;15.85;;;14.23;;
46653;SDS011;38960;51.074;17.004;2022-07-23T02:58:21;14.52;;;13.27;;
46653;SDS011;38960;51.074;17.004;2022-07-23T03:00:47;14.90;;;13.45;;
46653;SDS011;38960;51.074;17.004;2022-07-23T03:03:12;14.52;;;13.05;;
46653;SDS011;38960;51.074;17.004;2022-07-23T03:05:38;14.07;;;12.77;;
46653;SDS011;38960;51.074;17.004;2022-07-23T03:08:04;15.93;;;13.40;;
46653;SDS011;38960;51.074;17.004;2022-07-23T03:10:36;15.57;;;14.13;;
46653;SDS011;38960;51.074;17.004;2022-07-23T03:13:01;15.20;;;13.68;;
46653;SDS011;38960;51.074;17.004;2022-07-23T03:15:27;15.50;;;14.10;;
46653;SDS011;38960;51.074;17.004;2022-07-23T03:17:52;17.65;;;14.63;;
46653;SDS011;38960;51.074;17.004;2022-07-23T03:20:18;17.67;;;13.60;;
46653;SDS011;38960;51.074;17.004;2022-07-23T03:22:43;15.23;;;13.93;;
46653;SDS011;38960;51.074;17.004;2022-07-23T03:25:09;16.67;;;15.07;;
46653;SDS011;38960;51.074;17.004;2022-07-23T03:27:34;19.00;;;14.07;;
46653;SDS011;38960;51.074;17.004;2022-07-23T03:30:00;15.15;;;13.73;;
46653;SDS011;38960;51.074;17.004;2022-07-23T03:32:26;14.57;;;13.13;;
46653;SDS011;38960;51.074;17.004;2022-07-23T03:34:52;16.88;;;13.82;;
46653;SDS011;38960;51.074;17.004;2022-07-23T03:37:18;14.38;;;13.15;;
46653;SDS011;38960;51.074;17.004;2022-07-23T03:39:48;15.32;;;13.48;;
46653;SDS011;38960;51.074;17.004;2022-07-23T03:42:13;14.70;;;13.48;;
46653;SDS011;38960;51.074;17.004;2022-07-23T03:44:39;14.80;;;13.48;;
46653;SDS011;38960;51.074;17.004;2022-07-23T03:47:05;20.90;;;13.90;;
46653;SDS011;38960;51.074;17.004;2022-07-23T03:49:31;18.00;;;14.32;;
46653;SDS011;38960;51.074;17.004;2022-07-23T03:51:57;15.02;;;13.65;;
46653;SDS011;38960;51.074;17.004;2022-07-23T03:54:22;14.77;;;13.55;;
46653;SDS011;38960;51.074;17.004;2022-07-23T03:56:48;15.35;;;14.05;;
46653;SDS011;38960;51.074;17.004;2022-07-23T03:59:13;14.45;;;13.27;;
46653;SDS011;38960;51.074;17.004;2022-07-23T04:01:39;15.52;;;14.10;;
46653;SDS011;38960;51.074;17.004;2022-07-23T04:04:05;15.85;;;14.50;;
46653;SDS011;38960;51.074;17.004;2022-07-23T04:06:32;15.20;;;13.82;;
46653;SDS011;38960;51.074;17.004;2022-07-23T04:08:58;14.70;;;13.27;;
46653;SDS011;38960;51.074;17.004;2022-07-23T04:11:24;15.85;;;13.85;;
46653;SDS011;38960;51.074;17.004;2022-07-23T04:13:49;15.98;;;14.30;;
46653;SDS011;38960;51.074;17.004;2022-07-23T04:16:15;15.10;;;13.68;;
46653;SDS011;38960;51.074;17.004;2022-07-23T04:18:41;15.57;;;14.13;;
46653;SDS011;38960;51.074;17.004;2022-07-23T04:21:14;18.23;;;14.15;;
46653;SDS011;38960;51.074;17.004;2022-07-23T04:23:40;16.08;;;14.70;;
46653;SDS011;38960;51.074;17.004;2022-07-23T04:26:05;16.50;;;14.93;;
46653;SDS011;38960;51.074;17.004;2022-07-23T04:28:31;19.15;;;15.73;;
46653;SDS011;38960;51.074;17.004;2022-07-23T04:30:57;17.02;;;15.30;;
46653;SDS011;38960;51.074;17.004;2022-07-23T04:33:23;16.80;;;15.20;;
46653;SDS011;38960;51.074;17.004;2022-07-23T04:35:52;16.42;;;14.65;;
46653;SDS011;38960;51.074;17.004;2022-07-23T04:38:19;17.10;;;15.40;;
46653;SDS011;38960;51.074;17.004;2022-07-23T04:40:46;15.90;;;14.43;;
46653;SDS011;38960;51.074;17.004;2022-07-23T04:43:11;16.80;;;15.27;;
46653;SDS011;38960;51.074;17.004;2022-07-23T04:45:44;15.73;;;14.13;;
46653;SDS011;38960;51.074;17.004;2022-07-23T04:48:10;16.83;;;15.23;;
46653;SDS011;38960;51.074;17.004;2022-07-23T04:50:36;16.00;;;14.43;;
46653;SDS011;38960;51.074;17.004;2022-07-23T04:53:03;16.13;;;14.57;;
46653;SDS011;38960;51.074;17.004;2022-07-23T04:55:29;16.05;;;14.55;;
46653;SDS011;38960;51.074;17.004;2022-07-23T04:57:55;15.27;;;14.07;;
46653;SDS011;38960;51.074;17.004;2022-07-23T05:00:21;16.20;;;14.80;;
46653;SDS011;38960;51.074;17.004;2022-07-23T05:02:47;21.45;;;14.27;;
46653;SDS011;38960;51.074;17.004;2022-07-23T05:05:12;15.98;;;14.48;;
46653;SDS011;38960;51.074;17.004;2022-07-23T05:07:40;15.57;;;14.38;;
46653;SDS011;38960;51.074;17.004;2022-07-23T05:10:05;16.98;;;15.27;;
46653;SDS011;38960;51.074;17.004;2022-07-23T05:12:31;16.33;;;14.93;;
46653;SDS011;38960;51.074;17.004;2022-07-23T05:14:58;15.57;;;14.13;;
46653;SDS011;38960;51.074;17.004;2022-07-23T05:17:24;15.60;;;14.48;;
46653;SDS011;38960;51.074;17.004;2022-07-23T05:19:50;14.40;;;13.35;;
46653;SDS011;38960;51.074;17.004;2022-07-23T05:22:15;16.55;;;14.90;;
46653;SDS011;38960;51.074;17.004;2022-07-23T05:24:42;15.80;;;14.32;;
46653;SDS011;38960;51.074;17.004;2022-07-23T05:27:08;15.20;;;13.95;;
46653;SDS011;38960;51.074;17.004;2022-07-23T05:29:34;15.55;;;14.20;;
46653;SDS011;38960;51.074;17.004;2022-07-23T05:31:59;15.95;;;14.48;;
46653;SDS011;38960;51.074;17.004;2022-07-23T05:34:26;16.35;;;14.90;;
46653;SDS011;38960;51.074;17.004;2022-07-23T05:36:52;15.93;;;14.63;;
46653;SDS011;38960;51.074;17.004;2022-07-23T05:39:19;15.82;;;14.32;;
46653;SDS011;38960;51.074;17.004;2022-07-23T05:41:44;14.68;;;13.57;;
46653;SDS011;38960;51.074;17.004;2022-07-23T05:44:10;16.58;;;15.27;;
46653;SDS011;38960;51.074;17.004;2022-07-23T05:46:39;15.95;;;14.48;;
46653;SDS011;38960;51.074;17.004;2022-07-23T05:49:07;15.10;;;13.55;;
46653;SDS011;38960;51.074;17.004;2022-07-23T05:51:54;15.07;;;13.82;;
46653;SDS011;38960;51.074;17.004;2022-07-23T05:54:30;15.80;;;14.23;;
46653;SDS011;38960;51.074;17.004;2022-07-23T05:56:56;14.63;;;13.57;;
46653;SDS011;38960;51.074;17.004;2022-07-23T05:59:21;14.68;;;13.25;;
46653;SDS011;38960;51.074;17.004;2022-07-23T06:01:47;14.15;;;12.85;;
46653;SDS011;38960;51.074;17.004;2022-07-23T06:04:12;19.17;;;13.85;;
46653;SDS011;38960;51.074;17.004;2022-07-23T06:06:44;14.43;;;13.32;;
46653;SDS011;38960;51.074;17.004;2022-07-23T06:09:10;15.80;;;14.18;;
46653;SDS011;38960;51.074;17.004;2022-07-23T06:11:39;15.02;;;13.82;;
46653;SDS011;38960;51.074;17.004;2022-07-23T06:14:05;15.52;;;14.32;;
46653;SDS011;38960;51.074;17.004;2022-07-23T06:16:44;14.82;;;13.43;;
46653;SDS011;38960;51.074;17.004;2022-07-23T06:19:10;15.40;;;14.00;;
46653;SDS011;38960;51.074;17.004;2022-07-23T06:21:35;14.40;;;13.15;;
46653;SDS011;38960;51.074;17.004;2022-07-23T06:24:01;14.45;;;13.30;;
46653;SDS011;38960;51.074;17.004;2022-07-23T06:26:26;15.13;;;13.70;;
46653;SDS011;38960;51.074;17.004;2022-07-23T06:28:51;13.80;;;12.70;;
46653;SDS011;38960;51.074;17.004;2022-07-23T06:31:17;14.90;;;13.70;;
46653;SDS011;38960;51.074;17.004;2022-07-23T06:33:43;15.30;;;13.65;;
46653;SDS011;38960;51.074;17.004;2022-07-23T06:36:09;14.80;;;13.38;;
46653;SDS011;38960;51.074;17.004;2022-07-23T06:38:34;14.07;;;12.88;;
46653;SDS011;38960;51.074;17.004;2022-07-23T06:41:00;14.73;;;13.00;;
46653;SDS011;38960;51.074;17.004;2022-07-23T06:43:25;15.35;;;13.15;;
46653;SDS011;38960;51.074;17.004;2022-07-23T06:45:54;18.38;;;13.68;;
46653;SDS011;38960;51.074;17.004;2022-07-23T06:48:20;18.40;;;13.98;;
46653;SDS011;38960;51.074;17.004;2022-07-23T06:50:47;15.15;;;13.95;;
46653;SDS011;38960;51.074;17.004;2022-07-23T06:53:12;15.95;;;14.52;;
46653;SDS011;38960;51.074;17.004;2022-07-23T06:55:40;14.55;;;13.40;;
46653;SDS011;38960;51.074;17.004;2022-07-23T06:58:06;14.02;;;12.93;;
46653;SDS011;38960;51.074;17.004;2022-07-23T07:00:34;14.00;;;12.85;;
46653;SDS011;38960;51.074;17.004;2022-07-23T07:02:59;14.15;;;12.73;;
46653;SDS011;38960;51.074;17.004;2022-07-23T07:05:25;13.85;;;12.57;;
46653;SDS011;38960;51.074;17.004;2022-07-23T07:07:53;14.82;;;13.55;;
46653;SDS011;38960;51.074;17.004;2022-07-23T07:10:19;15.07;;;13.80;;
46653;SDS011;38960;51.074;17.004;2022-07-23T07:12:45;19.10;;;14.25;;
46653;SDS011;38960;51.074;17.004;2022-07-23T07:15:11;18.45;;;13.32;;
46653;SDS011;38960;51.074;17.004;2022-07-23T07:17:37;13.48;;;12.35;;
46653;SDS011;38960;51.074;17.004;2022-07-23T07:20:02;13.27;;;12.07;;
46653;SDS011;38960;51.074;17.004;2022-07-23T07:22:29;13.98;;;12.55;;
46653;SDS011;38960;51.074;17.004;2022-07-23T07:24:55;15.07;;;13.75;;
46653;SDS011;38960;51.074;17.004;2022-07-23T07:27:20;14.10;;;13.07;;
46653;SDS011;38960;51.074;17.004;2022-07-23T07:29:46;15.00;;;13.70;;
46653;SDS011;38960;51.074;17.004;2022-07-23T07:32:11;15.32;;;13.15;;
46653;SDS011;38960;51.074;17.004;2022-07-23T07:34:37;14.70;;;13.60;;
46653;SDS011;38960;51.074;17.004;2022-07-23T07:37:03;13.32;;;12.32;;
46653;SDS011;38960;51.074;17.004;2022-07-23T07:39:28;14.25;;;13.05;;
46653;SDS011;38960;51.074;17.004;2022-07-23T07:41:54;27.38;;;13.52;;
46653;SDS011;38960;51.074;17.004;2022-07-23T07:44:19;13.65;;;12.52;;
46653;SDS011;38960;51.074;17.004;2022-07-23T07:46:45;13.43;;;12.43;;
46653;SDS011;38960;51.074;17.004;2022-07-23T07:49:11;13.18;;;12.27;;
46653;SDS011;38960;51.074;17.004;2022-07-23T07:51:36;15.75;;;14.18;;
46653;SDS011;38960;51.074;17.004;2022-07-23T07:54:01;14.82;;;13.52;;
46653;SDS011;38960;51.074;17.004;2022-07-23T07:56:27;13.90;;;12.80;;
46653;SDS011;38960;51.074;17.004;2022-07-23T07:58:53;16.38;;;14.18;;
46653;SDS011;38960;51.074;17.004;2022-07-23T08:01:18;16.35;;;14.15;;
46653;SDS011;38960;51.074;17.004;2022-07-23T08:03:45;14.43;;;12.95;;
46653;SDS011;38960;51.074;17.004;2022-07-23T08:06:11;15.77;;;14.13;;
46653;SDS011;38960;51.074;17.004;2022-07-23T08:08:36;15.15;;;13.65;;
46653;SDS011;38960;51.074;17.004;2022-07-23T08:11:02;14.57;;;13.25;;
46653;SDS011;38960;51.074;17.004;2022-07-23T08:13:27;14.63;;;13.30;;
46653;SDS011;38960;51.074;17.004;2022-07-23T08:15:53;14.70;;;13.52;;
46653;SDS011;38960;51.074;17.004;2022-07-23T08:18:19;14.60;;;13.35;;
46653;SDS011;38960;51.074;17.004;2022-07-23T08:20:45;15.05;;;13.55;;
46653;SDS011;38960;51.074;17.004;2022-07-23T08:23:10;14.88;;;13.50;;
46653;SDS011;38960;51.074;17.004;2022-07-23T08:25:37;14.20;;;12.90;;
46653;SDS011;38960;51.074;17.004;2022-07-23T08:28:05;16.13;;;14.60;;
46653;SDS011;38960;51.074;17.004;2022-07-23T08:30:32;13.52;;;12.43;;
46653;SDS011;38960;51.074;17.004;2022-07-23T08:37:54;18.88;;;16.90;;
46653;SDS011;38960;51.074;17.004;2022-07-23T08:40:21;14.70;;;13.32;;
46653;SDS011;38960;51.074;17.004;2022-07-23T08:42:47;15.48;;;14.18;;
46653;SDS011;38960;51.074;17.004;2022-07-23T08:45:15;17.02;;;15.65;;
46653;SDS011;38960;51.074;17.004;2022-07-23T08:47:42;16.17;;;14.95;;
46653;SDS011;38960;51.074;17.004;2022-07-23T08:50:08;17.50;;;15.68;;
46653;SDS011;38960;51.074;17.004;2022-07-23T08:52:35;16.75;;;15.55;;
46653;SDS011;38960;51.074;17.004;2022-07-23T08:55:02;16.80;;;15.30;;
46653;SDS011;38960;51.074;17.004;2022-07-23T08:57:28;17.25;;;15.80;;
46653;SDS011;38960;51.074;17.004;2022-07-23T08:59:53;15.32;;;14.13;;
46653;SDS011;38960;51.074;17.004;2022-07-23T09:02:19;16.05;;;14.65;;
46653;SDS011;38960;51.074;17.004;2022-07-23T09:04:44;15.70;;;14.25;;
46653;SDS011;38960;51.074;17.004;2022-07-23T09:07:09;15.30;;;13.95;;
46653;SDS011;38960;51.074;17.004;2022-07-23T09:09:35;16.10;;;14.55;;
46653;SDS011;38960;51.074;17.004;2022-07-23T09:12:08;17.55;;;15.75;;
46653;SDS011;38960;51.074;17.004;2022-07-23T09:17:15;16.92;;;15.23;;
46653;SDS011;38960;51.074;17.004;2022-07-23T09:19:43;18.40;;;15.27;;
46653;SDS011;38960;51.074;17.004;2022-07-23T09:22:17;18.45;;;15.77;;
46653;SDS011;38960;51.074;17.004;2022-07-23T09:27:53;15.98;;;14.50;;
46653;SDS011;38960;51.074;17.004;2022-07-23T09:30:24;16.00;;;14.55;;
46653;SDS011;38960;51.074;17.004;2022-07-23T09:33:11;16.27;;;14.90;;
46653;SDS011;38960;51.074;17.004;2022-07-23T09:38:18;16.48;;;14.95;;
46653;SDS011;38960;51.074;17.004;2022-07-23T09:40:44;16.60;;;15.15;;
46653;SDS011;38960;51.074;17.004;2022-07-23T09:43:12;20.98;;;14.98;;
46653;SDS011;38960;51.074;17.004;2022-07-23T09:45:38;16.05;;;14.63;;
46653;SDS011;38960;51.074;17.004;2022-07-23T09:48:10;15.88;;;14.57;;
46653;SDS011;38960;51.074;17.004;2022-07-23T09:50:43;15.95;;;14.82;;
46653;SDS011;38960;51.074;17.004;2022-07-23T09:53:09;16.20;;;15.00;;
46653;SDS011;38960;51.074;17.004;2022-07-23T09:55:36;16.05;;;14.68;;
46653;SDS011;38960;51.074;17.004;2022-07-23T09:58:03;16.17;;;14.82;;
46653;SDS011;38960;51.074;17.004;2022-07-23T10:00:38;17.00;;;15.30;;
46653;SDS011;38960;51.074;17.004;2022-07-23T10:03:05;15.45;;;14.25;;
46653;SDS011;38960;51.074;17.004;2022-07-23T10:05:54;17.10;;;14.83;;
46653;SDS011;38960;51.074;17.004;2022-07-23T10:08:40;17.30;;;15.60;;
46653;SDS011;38960;51.074;17.004;2022-07-23T10:11:39;17.25;;;15.73;;
46653;SDS011;38960;51.074;17.004;2022-07-23T10:14:19;17.60;;;15.70;;
46653;SDS011;38960;51.074;17.004;2022-07-23T10:16:52;44.95;;;21.02;;
46653;SDS011;38960;51.074;17.004;2022-07-23T10:19:18;33.67;;;19.15;;
46653;SDS011;38960;51.074;17.004;2022-07-23T10:21:48;18.48;;;16.77;;
46653;SDS011;38960;51.074;17.004;2022-07-23T10:24:18;18.10;;;16.42;;
46653;SDS011;38960;51.074;17.004;2022-07-23T10:30:03;16.92;;;14.38;;
46653;SDS011;38960;51.074;17.004;2022-07-23T10:37:45;17.05;;;15.35;;
46653;SDS011;38960;51.074;17.004;2022-07-23T10:40:14;19.90;;;15.98;;
46653;SDS011;38960;51.074;17.004;2022-07-23T10:42:47;16.45;;;14.82;;
46653;SDS011;38960;51.074;17.004;2022-07-23T10:48:14;18.98;;;17.08;;
46653;SDS011;38960;51.074;17.004;2022-07-23T10:50:41;17.15;;;15.82;;
46653;SDS011;38960;51.074;17.004;2022-07-23T10:53:12;16.73;;;15.50;;
46653;SDS011;38960;51.074;17.004;2022-07-23T10:55:42;17.50;;;15.77;;
46653;SDS011;38960;51.074;17.004;2022-07-23T10:58:17;17.40;;;16.02;;
46653;SDS011;38960;51.074;17.004;2022-07-23T11:00:46;17.25;;;15.80;;
46653;SDS011;38960;51.074;17.004;2022-07-23T11:03:29;17.23;;;15.82;;
46653;SDS011;38960;51.074;17.004;2022-07-23T11:06:04;19.13;;;17.52;;
46653;SDS011;38960;51.074;17.004;2022-07-23T11:08:30;19.23;;;16.50;;
46653;SDS011;38960;51.074;17.004;2022-07-23T11:13:31;18.90;;;17.35;;
46653;SDS011;38960;51.074;17.004;2022-07-23T11:31:53;18.60;;;17.30;;
46653;SDS011;38960;51.074;17.004;2022-07-23T11:39:29;19.50;;;17.60;;
46653;SDS011;38960;51.074;17.004;2022-07-23T11:41:55;20.00;;;18.50;;
46653;SDS011;38960;51.074;17.004;2022-07-23T11:47:00;19.67;;;17.33;;
46653;SDS011;38960;51.074;17.004;2022-07-23T11:49:27;19.75;;;18.05;;
46653;SDS011;38960;51.074;17.004;2022-07-23T11:52:05;19.38;;;17.88;;
46653;SDS011;38960;51.074;17.004;2022-07-23T11:54:33;19.33;;;18.02;;
46653;SDS011;38960;51.074;17.004;2022-07-23T11:57:00;19.85;;;18.02;;
46653;SDS011;38960;51.074;17.004;2022-07-23T11:59:28;20.25;;;18.55;;
46653;SDS011;38960;51.074;17.004;2022-07-23T12:02:00;20.05;;;18.23;;
46653;SDS011;38960;51.074;17.004;2022-07-23T12:07:03;19.08;;;17.48;;
46653;SDS011;38960;51.074;17.004;2022-07-23T12:09:28;20.23;;;18.42;;
46653;SDS011;38960;51.074;17.004;2022-07-23T12:11:57;19.92;;;18.27;;
46653;SDS011;38960;51.074;17.004;2022-07-23T12:14:24;19.73;;;17.50;;
46653;SDS011;38960;51.074;17.004;2022-07-23T12:17:08;18.05;;;16.65;;
46653;SDS011;38960;51.074;17.004;2022-07-23T12:19:36;18.13;;;16.73;;
46653;SDS011;38960;51.074;17.004;2022-07-23T12:22:02;18.83;;;17.33;;
46653;SDS011;38960;51.074;17.004;2022-07-23T12:24:28;19.75;;;18.15;;
46653;SDS011;38960;51.074;17.004;2022-07-23T12:27:09;18.55;;;17.25;;
46653;SDS011;38960;51.074;17.004;2022-07-23T12:29:39;19.05;;;17.58;;
46653;SDS011;38960;51.074;17.004;2022-07-23T12:32:26;19.13;;;17.27;;
46653;SDS011;38960;51.074;17.004;2022-07-23T12:35:03;19.35;;;17.83;;
46653;SDS011;38960;51.074;17.004;2022-07-23T12:37:32;19.75;;;18.15;;
46653;SDS011;38960;51.074;17.004;2022-07-23T12:39:58;18.05;;;16.55;;
46653;SDS011;38960;51.074;17.004;2022-07-23T12:42:44;18.98;;;17.42;;
46653;SDS011;38960;51.074;17.004;2022-07-23T12:45:10;18.17;;;16.67;;
46653;SDS011;38960;51.074;17.004;2022-07-23T12:50:33;19.55;;;17.83;;
46653;SDS011;38960;51.074;17.004;2022-07-23T12:53:08;18.35;;;16.85;;
46653;SDS011;38960;51.074;17.004;2022-07-23T12:55:36;18.60;;;17.08;;
46653;SDS011;38960;51.074;17.004;2022-07-23T12:58:03;18.35;;;16.88;;
46653;SDS011;38960;51.074;17.004;2022-07-23T13:00:48;17.92;;;16.55;;
46653;SDS011;38960;51.074;17.004;2022-07-23T13:03:31;18.27;;;16.63;;
46653;SDS011;38960;51.074;17.004;2022-07-23T13:05:59;18.77;;;17.10;;
46653;SDS011;38960;51.074;17.004;2022-07-23T13:08:26;18.33;;;16.83;;
46653;SDS011;38960;51.074;17.004;2022-07-23T13:10:53;17.02;;;15.75;;
46653;SDS011;38960;51.074;17.004;2022-07-23T13:13:25;17.95;;;16.25;;
46653;SDS011;38960;51.074;17.004;2022-07-23T13:15:52;18.00;;;16.50;;
46653;SDS011;38960;51.074;17.004;2022-07-23T13:18:18;16.70;;;15.50;;
46653;SDS011;38960;51.074;17.004;2022-07-23T13:20:47;17.20;;;15.75;;
46653;SDS011;38960;51.074;17.004;2022-07-23T13:23:13;16.17;;;15.02;;
46653;SDS011;38960;51.074;17.004;2022-07-23T13:25:39;17.08;;;15.45;;
46653;SDS011;38960;51.074;17.004;2022-07-23T13:28:05;17.83;;;16.08;;
46653;SDS011;38960;51.074;17.004;2022-07-23T13:30:31;16.92;;;15.43;;
46653;SDS011;38960;51.074;17.004;2022-07-23T13:32:57;20.83;;;18.73;;
46653;SDS011;38960;51.074;17.004;2022-07-23T13:35:22;18.42;;;16.35;;
46653;SDS011;38960;51.074;17.004;2022-07-23T13:37:48;17.60;;;15.82;;
46653;SDS011;38960;51.074;17.004;2022-07-23T13:40:13;16.38;;;14.90;;
46653;SDS011;38960;51.074;17.004;2022-07-23T13:42:39;16.67;;;15.18;;
46653;SDS011;38960;51.074;17.004;2022-07-23T13:45:05;16.33;;;14.95;;
46653;SDS011;38960;51.074;17.004;2022-07-23T13:47:31;16.33;;;15.15;;
46653;SDS011;38960;51.074;17.004;2022-07-23T13:49:57;18.90;;;17.13;;
46653;SDS011;38960;51.074;17.004;2022-07-23T13:52:22;17.83;;;16.27;;
46653;SDS011;38960;51.074;17.004;2022-07-23T13:54:48;17.42;;;16.02;;
46653;SDS011;38960;51.074;17.004;2022-07-23T13:57:13;19.58;;;17.98;;
46653;SDS011;38960;51.074;17.004;2022-07-23T13:59:39;18.48;;;16.77;;
46653;SDS011;38960;51.074;17.004;2022-07-23T14:02:04;17.85;;;16.15;;
46653;SDS011;38960;51.074;17.004;2022-07-23T14:04:30;17.40;;;15.68;;
46653;SDS011;38960;51.074;17.004;2022-07-23T14:06:55;17.30;;;15.77;;
46653;SDS011;38960;51.074;17.004;2022-07-23T14:09:21;18.30;;;16.75;;
46653;SDS011;38960;51.074;17.004;2022-07-23T14:11:47;17.50;;;16.30;;
46653;SDS011;38960;51.074;17.004;2022-07-23T14:14:12;17.77;;;16.08;;
46653;SDS011;38960;51.074;17.004;2022-07-23T14:16:38;19.42;;;16.80;;
46653;SDS011;38960;51.074;17.004;2022-07-23T14:19:04;17.15;;;15.55;;
46653;SDS011;38960;51.074;17.004;2022-07-23T14:21:29;19.40;;;16.73;;
46653;SDS011;38960;51.074;17.004;2022-07-23T14:23:55;16.70;;;15.55;;
46653;SDS011;38960;51.074;17.004;2022-07-23T14:26:20;17.10;;;15.55;;
46653;SDS011;38960;51.074;17.004;2022-07-23T14:28:46;17.55;;;15.43;;
46653;SDS011;38960;51.074;17.004;2022-07-23T14:31:11;16.08;;;14.88;;
46653;SDS011;38960;51.074;17.004;2022-07-23T14:33:37;15.80;;;14.48;;
46653;SDS011;38960;51.074;17.004;2022-07-23T14:36:02;16.75;;;15.23;;
46653;SDS011;38960;51.074;17.004;2022-07-23T14:38:28;17.60;;;15.75;;
46653;SDS011;38960;51.074;17.004;2022-07-23T14:40:55;17.73;;;16.20;;
46653;SDS011;38960;51.074;17.004;2022-07-23T14:43:22;17.13;;;15.57;;
46653;SDS011;38960;51.074;17.004;2022-07-23T14:45:47;17.20;;;15.75;;
46653;SDS011;38960;51.074;17.004;2022-07-23T14:48:13;17.25;;;15.85;;
46653;SDS011;38960;51.074;17.004;2022-07-23T14:50:38;16.55;;;15.02;;
46653;SDS011;38960;51.074;17.004;2022-07-23T14:53:04;16.75;;;15.27;;
46653;SDS011;38960;51.074;17.004;2022-07-23T14:55:32;16.92;;;15.57;;
46653;SDS011;38960;51.074;17.004;2022-07-23T14:57:58;16.50;;;15.13;;
46653;SDS011;38960;51.074;17.004;2022-07-23T15:00:24;16.85;;;15.55;;
46653;SDS011;38960;51.074;17.004;2022-07-23T15:02:50;16.73;;;15.10;;
46653;SDS011;38960;51.074;17.004;2022-07-23T15:05:16;17.02;;;15.30;;
46653;SDS011;38960;51.074;17.004;2022-07-23T15:07:41;17.33;;;15.77;;
46653;SDS011;38960;51.074;17.004;2022-07-23T15:10:07;15.73;;;14.52;;